<?xml version="1.0" encoding="UTF-8" standalone="no" ?>
<gpx xmlns="http://www.topografix.com/GPX/1/1" xmlns:xsi="http://www.w3.org/2001/XMLSchema-instance" xsi:schemaLocation="http://www.topografix.com/GPX/1/1 http://www.topografix.com/GPX/1/1/gpx.xsd" version="1.1" creator="VisuGPX - https://www.visugpx.com">
  <metadata>
    <name>LaMontagne_BourgCoteauxRocheBalue_5-10km</name>
    <desc><![CDATA[gnerando idor:7892356_7892816-7892347_7893056]]></desc>
  </metadata>
  <trk>
    <name><![CDATA[LaMontagne_Coteaux_10.3km-7892356]]></name>
    <extensions>
      <line xmlns="http://www.topografix.com/GPX/gpx_style/0/2">
        <color>FF0000</color>
        <width>4</width>
      </line>
    </extensions>
    <trkseg>
      <trkpt lat="47.1834" lon="-1.67524">
        <ele>30</ele>
        <time>2023-11-04T12:25:08Z</time>
      </trkpt>
      <trkpt lat="47.18237" lon="-1.67584">
        <ele>31</ele>
        <time>2023-11-04T12:27:36Z</time>
      </trkpt>
      <trkpt lat="47.18226" lon="-1.67595">
        <ele>32</ele>
        <time>2023-11-04T12:27:54Z</time>
      </trkpt>
      <trkpt lat="47.18192" lon="-1.67471">
        <ele>34</ele>
        <time>2023-11-04T12:29:55Z</time>
      </trkpt>
      <trkpt lat="47.18165" lon="-1.67383">
        <ele>32</ele>
        <time>2023-11-04T12:31:22Z</time>
      </trkpt>
      <trkpt lat="47.18149" lon="-1.6732">
        <ele>32</ele>
        <time>2023-11-04T12:32:23Z</time>
      </trkpt>
      <trkpt lat="47.18114" lon="-1.67225">
        <ele>33</ele>
        <time>2023-11-04T12:34:01Z</time>
      </trkpt>
      <trkpt lat="47.18216" lon="-1.67141">
        <ele>32</ele>
        <time>2023-11-04T12:36:37Z</time>
      </trkpt>
      <trkpt lat="47.18334" lon="-1.67052">
        <ele>32</ele>
        <time>2023-11-04T12:39:34Z</time>
      </trkpt>
      <trkpt lat="47.18448" lon="-1.66969">
        <ele>33</ele>
        <time>2023-11-04T12:42:24Z</time>
      </trkpt>
      <trkpt lat="47.18531" lon="-1.66913">
        <ele>30</ele>
        <time>2023-11-04T12:44:26Z</time>
      </trkpt>
      <trkpt lat="47.18593" lon="-1.6687">
        <ele>27</ele>
        <time>2023-11-04T12:45:57Z</time>
      </trkpt>
      <trkpt lat="47.18619" lon="-1.6683">
        <ele>24</ele>
        <time>2023-11-04T12:46:48Z</time>
      </trkpt>
      <trkpt lat="47.18697" lon="-1.66739">
        <ele>15</ele>
        <time>2023-11-04T12:49:00Z</time>
      </trkpt>
      <trkpt lat="47.18728" lon="-1.66699">
        <ele>11</ele>
        <time>2023-11-04T12:49:55Z</time>
      </trkpt>
      <trkpt lat="47.18749" lon="-1.66686">
        <ele>9</ele>
        <time>2023-11-04T12:50:26Z</time>
      </trkpt>
      <trkpt lat="47.18797" lon="-1.66687">
        <ele>8</ele>
        <time>2023-11-04T12:51:30Z</time>
      </trkpt>
      <trkpt lat="47.18804" lon="-1.66738">
        <ele>8</ele>
        <time>2023-11-04T12:52:17Z</time>
      </trkpt>
      <trkpt lat="47.18813" lon="-1.66805">
        <ele>8</ele>
        <time>2023-11-04T12:53:19Z</time>
      </trkpt>
      <trkpt lat="47.18821" lon="-1.66822">
        <ele>7</ele>
        <time>2023-11-04T12:53:38Z</time>
      </trkpt>
      <trkpt lat="47.18834" lon="-1.669">
        <ele>11</ele>
        <time>2023-11-04T12:54:51Z</time>
      </trkpt>
      <trkpt lat="47.1885" lon="-1.66972">
        <ele>13</ele>
        <time>2023-11-04T12:55:59Z</time>
      </trkpt>
      <trkpt lat="47.18869" lon="-1.67089">
        <ele>15</ele>
        <time>2023-11-04T12:57:48Z</time>
      </trkpt>
      <trkpt lat="47.18873" lon="-1.67193">
        <ele>19</ele>
        <time>2023-11-04T12:59:23Z</time>
      </trkpt>
      <trkpt lat="47.18876" lon="-1.67214">
        <ele>20</ele>
        <time>2023-11-04T12:59:42Z</time>
      </trkpt>
      <trkpt lat="47.18852" lon="-1.67251">
        <ele>27</ele>
        <time>2023-11-04T13:00:29Z</time>
      </trkpt>
      <trkpt lat="47.18861" lon="-1.67308">
        <ele>28</ele>
        <time>2023-11-04T13:01:22Z</time>
      </trkpt>
      <trkpt lat="47.18894" lon="-1.67399">
        <ele>27</ele>
        <time>2023-11-04T13:02:55Z</time>
      </trkpt>
      <trkpt lat="47.18905" lon="-1.67443">
        <ele>27</ele>
        <time>2023-11-04T13:03:38Z</time>
      </trkpt>
      <trkpt lat="47.18913" lon="-1.67484">
        <ele>29</ele>
        <time>2023-11-04T13:04:17Z</time>
      </trkpt>
      <trkpt lat="47.18919" lon="-1.67537">
        <ele>29</ele>
        <time>2023-11-04T13:05:05Z</time>
      </trkpt>
      <trkpt lat="47.18927" lon="-1.67594">
        <ele>28</ele>
        <time>2023-11-04T13:05:58Z</time>
      </trkpt>
      <trkpt lat="47.1893" lon="-1.67624">
        <ele>27</ele>
        <time>2023-11-04T13:06:26Z</time>
      </trkpt>
      <trkpt lat="47.18937" lon="-1.67653">
        <ele>26</ele>
        <time>2023-11-04T13:06:53Z</time>
      </trkpt>
      <trkpt lat="47.18942" lon="-1.6769">
        <ele>25</ele>
        <time>2023-11-04T13:07:28Z</time>
      </trkpt>
      <trkpt lat="47.18928" lon="-1.67717">
        <ele>28</ele>
        <time>2023-11-04T13:07:59Z</time>
      </trkpt>
      <trkpt lat="47.18914" lon="-1.67736">
        <ele>31</ele>
        <time>2023-11-04T13:08:24Z</time>
      </trkpt>
      <trkpt lat="47.18913" lon="-1.67765">
        <ele>31</ele>
        <time>2023-11-04T13:08:50Z</time>
      </trkpt>
      <trkpt lat="47.18919" lon="-1.67824">
        <ele>29</ele>
        <time>2023-11-04T13:09:44Z</time>
      </trkpt>
      <trkpt lat="47.18918" lon="-1.67866">
        <ele>30</ele>
        <time>2023-11-04T13:10:22Z</time>
      </trkpt>
      <trkpt lat="47.18916" lon="-1.67897">
        <ele>32</ele>
        <time>2023-11-04T13:10:51Z</time>
      </trkpt>
      <trkpt lat="47.18947" lon="-1.67877">
        <ele>27</ele>
        <time>2023-11-04T13:11:36Z</time>
      </trkpt>
      <trkpt lat="47.18971" lon="-1.67894">
        <ele>25</ele>
        <time>2023-11-04T13:12:11Z</time>
      </trkpt>
      <trkpt lat="47.18981" lon="-1.67918">
        <ele>26</ele>
        <time>2023-11-04T13:12:37Z</time>
      </trkpt>
      <trkpt lat="47.18991" lon="-1.67941">
        <ele>27</ele>
        <time>2023-11-04T13:13:02Z</time>
      </trkpt>
      <trkpt lat="47.18977" lon="-1.67966">
        <ele>30</ele>
        <time>2023-11-04T13:13:31Z</time>
      </trkpt>
      <trkpt lat="47.18958" lon="-1.67985">
        <ele>32</ele>
        <time>2023-11-04T13:14:02Z</time>
      </trkpt>
      <trkpt lat="47.18977" lon="-1.68028">
        <ele>33</ele>
        <time>2023-11-04T13:14:48Z</time>
      </trkpt>
      <trkpt lat="47.18987" lon="-1.6804">
        <ele>33</ele>
        <time>2023-11-04T13:15:05Z</time>
      </trkpt>
      <trkpt lat="47.19008" lon="-1.68018">
        <ele>31</ele>
        <time>2023-11-04T13:15:40Z</time>
      </trkpt>
      <trkpt lat="47.19042" lon="-1.68024">
        <ele>26</ele>
        <time>2023-11-04T13:16:26Z</time>
      </trkpt>
      <trkpt lat="47.19075" lon="-1.68041">
        <ele>24</ele>
        <time>2023-11-04T13:17:12Z</time>
      </trkpt>
      <trkpt lat="47.19096" lon="-1.68078">
        <ele>25</ele>
        <time>2023-11-04T13:17:56Z</time>
      </trkpt>
      <trkpt lat="47.19112" lon="-1.68154">
        <ele>26</ele>
        <time>2023-11-04T13:19:08Z</time>
      </trkpt>
      <trkpt lat="47.19119" lon="-1.68193">
        <ele>26</ele>
        <time>2023-11-04T13:19:45Z</time>
      </trkpt>
      <trkpt lat="47.19117" lon="-1.68243">
        <ele>29</ele>
        <time>2023-11-04T13:20:30Z</time>
      </trkpt>
      <trkpt lat="47.19124" lon="-1.68264">
        <ele>28</ele>
        <time>2023-11-04T13:20:51Z</time>
      </trkpt>
      <trkpt lat="47.19101" lon="-1.68271">
        <ele>32</ele>
        <time>2023-11-04T13:21:23Z</time>
      </trkpt>
      <trkpt lat="47.19084" lon="-1.68274">
        <ele>35</ele>
        <time>2023-11-04T13:21:46Z</time>
      </trkpt>
      <trkpt lat="47.19033" lon="-1.68305">
        <ele>37</ele>
        <time>2023-11-04T13:22:59Z</time>
      </trkpt>
      <trkpt lat="47.19034" lon="-1.68399">
        <ele>38</ele>
        <time>2023-11-04T13:24:24Z</time>
      </trkpt>
      <trkpt lat="47.19094" lon="-1.68359">
        <ele>35</ele>
        <time>2023-11-04T13:25:52Z</time>
      </trkpt>
      <trkpt lat="47.19097" lon="-1.68424">
        <ele>35</ele>
        <time>2023-11-04T13:26:51Z</time>
      </trkpt>
      <trkpt lat="47.19146" lon="-1.68549">
        <ele>34</ele>
        <time>2023-11-04T13:29:02Z</time>
      </trkpt>
      <trkpt lat="47.1916" lon="-1.68597">
        <ele>35</ele>
        <time>2023-11-04T13:29:50Z</time>
      </trkpt>
      <trkpt lat="47.1917" lon="-1.68648">
        <ele>35</ele>
        <time>2023-11-04T13:30:38Z</time>
      </trkpt>
      <trkpt lat="47.19187" lon="-1.68688">
        <ele>32</ele>
        <time>2023-11-04T13:31:21Z</time>
      </trkpt>
      <trkpt lat="47.19203" lon="-1.68713">
        <ele>31</ele>
        <time>2023-11-04T13:31:52Z</time>
      </trkpt>
      <trkpt lat="47.19229" lon="-1.68721">
        <ele>29</ele>
        <time>2023-11-04T13:32:27Z</time>
      </trkpt>
      <trkpt lat="47.19233" lon="-1.68754">
        <ele>29</ele>
        <time>2023-11-04T13:32:58Z</time>
      </trkpt>
      <trkpt lat="47.1924" lon="-1.6879">
        <ele>30</ele>
        <time>2023-11-04T13:33:31Z</time>
      </trkpt>
      <trkpt lat="47.19239" lon="-1.68834">
        <ele>31</ele>
        <time>2023-11-04T13:34:11Z</time>
      </trkpt>
      <trkpt lat="47.1925" lon="-1.6885">
        <ele>30</ele>
        <time>2023-11-04T13:34:32Z</time>
      </trkpt>
      <trkpt lat="47.19296" lon="-1.68939">
        <ele>29</ele>
        <time>2023-11-04T13:36:13Z</time>
      </trkpt>
      <trkpt lat="47.1932" lon="-1.68986">
        <ele>28</ele>
        <time>2023-11-04T13:37:07Z</time>
      </trkpt>
      <trkpt lat="47.19336" lon="-1.6901">
        <ele>27</ele>
        <time>2023-11-04T13:37:37Z</time>
      </trkpt>
      <trkpt lat="47.19345" lon="-1.69023">
        <ele>25</ele>
        <time>2023-11-04T13:37:54Z</time>
      </trkpt>
      <trkpt lat="47.19352" lon="-1.69062">
        <ele>23</ele>
        <time>2023-11-04T13:38:31Z</time>
      </trkpt>
      <trkpt lat="47.19376" lon="-1.69138">
        <ele>19</ele>
        <time>2023-11-04T13:39:47Z</time>
      </trkpt>
      <trkpt lat="47.19386" lon="-1.69189">
        <ele>19</ele>
        <time>2023-11-04T13:40:35Z</time>
      </trkpt>
      <trkpt lat="47.19406" lon="-1.69241">
        <ele>18</ele>
        <time>2023-11-04T13:41:29Z</time>
      </trkpt>
      <trkpt lat="47.19413" lon="-1.69289">
        <ele>16</ele>
        <time>2023-11-04T13:42:13Z</time>
      </trkpt>
      <trkpt lat="47.19408" lon="-1.69315">
        <ele>16</ele>
        <time>2023-11-04T13:42:38Z</time>
      </trkpt>
      <trkpt lat="47.1939" lon="-1.69361">
        <ele>15</ele>
        <time>2023-11-04T13:43:26Z</time>
      </trkpt>
      <trkpt lat="47.19371" lon="-1.69384">
        <ele>15</ele>
        <time>2023-11-04T13:43:59Z</time>
      </trkpt>
      <trkpt lat="47.1934" lon="-1.69408">
        <ele>15</ele>
        <time>2023-11-04T13:44:46Z</time>
      </trkpt>
      <trkpt lat="47.19303" lon="-1.69423">
        <ele>16</ele>
        <time>2023-11-04T13:45:37Z</time>
      </trkpt>
      <trkpt lat="47.19286" lon="-1.69457">
        <ele>16</ele>
        <time>2023-11-04T13:46:15Z</time>
      </trkpt>
      <trkpt lat="47.19289" lon="-1.69475">
        <ele>15</ele>
        <time>2023-11-04T13:46:32Z</time>
      </trkpt>
      <trkpt lat="47.19314" lon="-1.69459">
        <ele>15</ele>
        <time>2023-11-04T13:47:08Z</time>
      </trkpt>
      <trkpt lat="47.19342" lon="-1.69467">
        <ele>13</ele>
        <time>2023-11-04T13:47:46Z</time>
      </trkpt>
      <trkpt lat="47.19399" lon="-1.69451">
        <ele>12</ele>
        <time>2023-11-04T13:49:04Z</time>
      </trkpt>
      <trkpt lat="47.19434" lon="-1.6943">
        <ele>9</ele>
        <time>2023-11-04T13:49:54Z</time>
      </trkpt>
      <trkpt lat="47.19457" lon="-1.6942">
        <ele>7</ele>
        <time>2023-11-04T13:50:26Z</time>
      </trkpt>
      <trkpt lat="47.19485" lon="-1.69413">
        <ele>6</ele>
        <time>2023-11-04T13:51:04Z</time>
      </trkpt>
      <trkpt lat="47.19501" lon="-1.69432">
        <ele>6</ele>
        <time>2023-11-04T13:51:32Z</time>
      </trkpt>
      <trkpt lat="47.19461" lon="-1.69456">
        <ele>10</ele>
        <time>2023-11-04T13:52:29Z</time>
      </trkpt>
      <trkpt lat="47.1944" lon="-1.69481">
        <ele>13</ele>
        <time>2023-11-04T13:53:05Z</time>
      </trkpt>
      <trkpt lat="47.1942" lon="-1.69491">
        <ele>15</ele>
        <time>2023-11-04T13:53:34Z</time>
      </trkpt>
      <trkpt lat="47.19403" lon="-1.69516">
        <ele>17</ele>
        <time>2023-11-04T13:54:06Z</time>
      </trkpt>
      <trkpt lat="47.19353" lon="-1.69504">
        <ele>14</ele>
        <time>2023-11-04T13:55:13Z</time>
      </trkpt>
      <trkpt lat="47.19289" lon="-1.6952">
        <ele>14</ele>
        <time>2023-11-04T13:56:40Z</time>
      </trkpt>
      <trkpt lat="47.1925" lon="-1.69558">
        <ele>12</ele>
        <time>2023-11-04T13:57:42Z</time>
      </trkpt>
      <trkpt lat="47.19218" lon="-1.69594">
        <ele>12</ele>
        <time>2023-11-04T13:58:36Z</time>
      </trkpt>
      <trkpt lat="47.19205" lon="-1.69623">
        <ele>12</ele>
        <time>2023-11-04T13:59:07Z</time>
      </trkpt>
      <trkpt lat="47.19201" lon="-1.69676">
        <ele>12</ele>
        <time>2023-11-04T13:59:56Z</time>
      </trkpt>
      <trkpt lat="47.1919" lon="-1.69776">
        <ele>11</ele>
        <time>2023-11-04T14:01:28Z</time>
      </trkpt>
      <trkpt lat="47.19183" lon="-1.69847">
        <ele>10</ele>
        <time>2023-11-04T14:02:33Z</time>
      </trkpt>
      <trkpt lat="47.19174" lon="-1.69944">
        <ele>10</ele>
        <time>2023-11-04T14:04:02Z</time>
      </trkpt>
      <trkpt lat="47.19113" lon="-1.69942">
        <ele>9</ele>
        <time>2023-11-04T14:05:23Z</time>
      </trkpt>
      <trkpt lat="47.19089" lon="-1.69925">
        <ele>10</ele>
        <time>2023-11-04T14:05:59Z</time>
      </trkpt>
      <trkpt lat="47.19057" lon="-1.69876">
        <ele>13</ele>
        <time>2023-11-04T14:07:00Z</time>
      </trkpt>
      <trkpt lat="47.19042" lon="-1.69824">
        <ele>15</ele>
        <time>2023-11-04T14:07:51Z</time>
      </trkpt>
      <trkpt lat="47.1904" lon="-1.69771">
        <ele>17</ele>
        <time>2023-11-04T14:08:40Z</time>
      </trkpt>
      <trkpt lat="47.19039" lon="-1.69699">
        <ele>20</ele>
        <time>2023-11-04T14:09:45Z</time>
      </trkpt>
      <trkpt lat="47.19058" lon="-1.69659">
        <ele>21</ele>
        <time>2023-11-04T14:10:29Z</time>
      </trkpt>
      <trkpt lat="47.19053" lon="-1.69582">
        <ele>21</ele>
        <time>2023-11-04T14:11:39Z</time>
      </trkpt>
      <trkpt lat="47.18988" lon="-1.69544">
        <ele>24</ele>
        <time>2023-11-04T14:13:13Z</time>
      </trkpt>
      <trkpt lat="47.18952" lon="-1.69527">
        <ele>24</ele>
        <time>2023-11-04T14:14:03Z</time>
      </trkpt>
      <trkpt lat="47.1891" lon="-1.69503">
        <ele>22</ele>
        <time>2023-11-04T14:15:03Z</time>
      </trkpt>
      <trkpt lat="47.18861" lon="-1.69476">
        <ele>24</ele>
        <time>2023-11-04T14:16:13Z</time>
      </trkpt>
      <trkpt lat="47.18834" lon="-1.69444">
        <ele>24</ele>
        <time>2023-11-04T14:16:59Z</time>
      </trkpt>
      <trkpt lat="47.18839" lon="-1.694">
        <ele>23</ele>
        <time>2023-11-04T14:17:40Z</time>
      </trkpt>
      <trkpt lat="47.18868" lon="-1.69381">
        <ele>23</ele>
        <time>2023-11-04T14:18:22Z</time>
      </trkpt>
      <trkpt lat="47.18873" lon="-1.69343">
        <ele>22</ele>
        <time>2023-11-04T14:18:57Z</time>
      </trkpt>
      <trkpt lat="47.18881" lon="-1.69314">
        <ele>21</ele>
        <time>2023-11-04T14:19:26Z</time>
      </trkpt>
      <trkpt lat="47.1888" lon="-1.69284">
        <ele>21</ele>
        <time>2023-11-04T14:19:53Z</time>
      </trkpt>
      <trkpt lat="47.18914" lon="-1.69264">
        <ele>22</ele>
        <time>2023-11-04T14:20:42Z</time>
      </trkpt>
      <trkpt lat="47.18951" lon="-1.69244">
        <ele>24</ele>
        <time>2023-11-04T14:21:34Z</time>
      </trkpt>
      <trkpt lat="47.18984" lon="-1.69229">
        <ele>26</ele>
        <time>2023-11-04T14:22:20Z</time>
      </trkpt>
      <trkpt lat="47.18955" lon="-1.69168">
        <ele>25</ele>
        <time>2023-11-04T14:23:28Z</time>
      </trkpt>
      <trkpt lat="47.18924" lon="-1.69104">
        <ele>23</ele>
        <time>2023-11-04T14:24:39Z</time>
      </trkpt>
      <trkpt lat="47.18904" lon="-1.6907">
        <ele>22</ele>
        <time>2023-11-04T14:25:20Z</time>
      </trkpt>
      <trkpt lat="47.18891" lon="-1.69024">
        <ele>22</ele>
        <time>2023-11-04T14:26:05Z</time>
      </trkpt>
      <trkpt lat="47.1883" lon="-1.69029">
        <ele>18</ele>
        <time>2023-11-04T14:27:27Z</time>
      </trkpt>
      <trkpt lat="47.18816" lon="-1.69034">
        <ele>18</ele>
        <time>2023-11-04T14:27:46Z</time>
      </trkpt>
      <trkpt lat="47.18785" lon="-1.68936">
        <ele>18</ele>
        <time>2023-11-04T14:29:24Z</time>
      </trkpt>
      <trkpt lat="47.18754" lon="-1.68887">
        <ele>18</ele>
        <time>2023-11-04T14:30:25Z</time>
      </trkpt>
      <trkpt lat="47.1872" lon="-1.68807">
        <ele>20</ele>
        <time>2023-11-04T14:31:50Z</time>
      </trkpt>
      <trkpt lat="47.18702" lon="-1.6877">
        <ele>21</ele>
        <time>2023-11-04T14:32:31Z</time>
      </trkpt>
      <trkpt lat="47.18662" lon="-1.68782">
        <ele>21</ele>
        <time>2023-11-04T14:33:26Z</time>
      </trkpt>
      <trkpt lat="47.18633" lon="-1.68789">
        <ele>21</ele>
        <time>2023-11-04T14:34:05Z</time>
      </trkpt>
      <trkpt lat="47.1862" lon="-1.68792">
        <ele>22</ele>
        <time>2023-11-04T14:34:23Z</time>
      </trkpt>
      <trkpt lat="47.186" lon="-1.68794">
        <ele>22</ele>
        <time>2023-11-04T14:34:49Z</time>
      </trkpt>
      <trkpt lat="47.18576" lon="-1.68798">
        <ele>22</ele>
        <time>2023-11-04T14:35:22Z</time>
      </trkpt>
      <trkpt lat="47.18558" lon="-1.68799">
        <ele>22</ele>
        <time>2023-11-04T14:35:46Z</time>
      </trkpt>
      <trkpt lat="47.18537" lon="-1.68802">
        <ele>22</ele>
        <time>2023-11-04T14:36:14Z</time>
      </trkpt>
      <trkpt lat="47.18505" lon="-1.68802">
        <ele>23</ele>
        <time>2023-11-04T14:36:57Z</time>
      </trkpt>
      <trkpt lat="47.18493" lon="-1.68778">
        <ele>23</ele>
        <time>2023-11-04T14:37:24Z</time>
      </trkpt>
      <trkpt lat="47.18473" lon="-1.68723">
        <ele>23</ele>
        <time>2023-11-04T14:38:20Z</time>
      </trkpt>
      <trkpt lat="47.18436" lon="-1.68626">
        <ele>25</ele>
        <time>2023-11-04T14:40:01Z</time>
      </trkpt>
      <trkpt lat="47.18416" lon="-1.68559">
        <ele>28</ele>
        <time>2023-11-04T14:41:07Z</time>
      </trkpt>
      <trkpt lat="47.18414" lon="-1.68491">
        <ele>29</ele>
        <time>2023-11-04T14:42:09Z</time>
      </trkpt>
      <trkpt lat="47.18394" lon="-1.68498">
        <ele>28</ele>
        <time>2023-11-04T14:42:37Z</time>
      </trkpt>
      <trkpt lat="47.18375" lon="-1.6852">
        <ele>28</ele>
        <time>2023-11-04T14:43:09Z</time>
      </trkpt>
      <trkpt lat="47.1836" lon="-1.68537">
        <ele>27</ele>
        <time>2023-11-04T14:43:34Z</time>
      </trkpt>
      <trkpt lat="47.18344" lon="-1.68548">
        <ele>27</ele>
        <time>2023-11-04T14:43:58Z</time>
      </trkpt>
      <trkpt lat="47.18355" lon="-1.68584">
        <ele>27</ele>
        <time>2023-11-04T14:44:33Z</time>
      </trkpt>
      <trkpt lat="47.1836" lon="-1.6865">
        <ele>26</ele>
        <time>2023-11-04T14:45:34Z</time>
      </trkpt>
      <trkpt lat="47.18384" lon="-1.68657">
        <ele>25</ele>
        <time>2023-11-04T14:46:06Z</time>
      </trkpt>
      <trkpt lat="47.18396" lon="-1.68664">
        <ele>25</ele>
        <time>2023-11-04T14:46:24Z</time>
      </trkpt>
      <trkpt lat="47.18402" lon="-1.68685">
        <ele>24</ele>
        <time>2023-11-04T14:46:44Z</time>
      </trkpt>
      <trkpt lat="47.18405" lon="-1.68715">
        <ele>24</ele>
        <time>2023-11-04T14:47:12Z</time>
      </trkpt>
      <trkpt lat="47.18398" lon="-1.68733">
        <ele>24</ele>
        <time>2023-11-04T14:47:31Z</time>
      </trkpt>
      <trkpt lat="47.1837" lon="-1.68733">
        <ele>23</ele>
        <time>2023-11-04T14:48:08Z</time>
      </trkpt>
      <trkpt lat="47.18357" lon="-1.68735">
        <ele>23</ele>
        <time>2023-11-04T14:48:25Z</time>
      </trkpt>
      <trkpt lat="47.18355" lon="-1.68738">
        <ele>23</ele>
        <time>2023-11-04T14:48:29Z</time>
      </trkpt>
      <trkpt lat="47.1835" lon="-1.68841">
        <ele>24</ele>
        <time>2023-11-04T14:50:03Z</time>
      </trkpt>
      <trkpt lat="47.18352" lon="-1.68942">
        <ele>26</ele>
        <time>2023-11-04T14:51:34Z</time>
      </trkpt>
      <trkpt lat="47.18357" lon="-1.68969">
        <ele>26</ele>
        <time>2023-11-04T14:52:00Z</time>
      </trkpt>
      <trkpt lat="47.184" lon="-1.68955">
        <ele>26</ele>
        <time>2023-11-04T14:52:59Z</time>
      </trkpt>
      <trkpt lat="47.18438" lon="-1.68958">
        <ele>27</ele>
        <time>2023-11-04T14:53:49Z</time>
      </trkpt>
      <trkpt lat="47.18477" lon="-1.68952">
        <ele>27</ele>
        <time>2023-11-04T14:54:42Z</time>
      </trkpt>
      <trkpt lat="47.18473" lon="-1.69002">
        <ele>28</ele>
        <time>2023-11-04T14:55:27Z</time>
      </trkpt>
      <trkpt lat="47.1848" lon="-1.69044">
        <ele>27</ele>
        <time>2023-11-04T14:56:07Z</time>
      </trkpt>
      <trkpt lat="47.18479" lon="-1.69059">
        <ele>27</ele>
        <time>2023-11-04T14:56:20Z</time>
      </trkpt>
      <trkpt lat="47.1845" lon="-1.6908">
        <ele>28</ele>
        <time>2023-11-04T14:57:03Z</time>
      </trkpt>
      <trkpt lat="47.18413" lon="-1.69104">
        <ele>29</ele>
        <time>2023-11-04T14:57:57Z</time>
      </trkpt>
      <trkpt lat="47.18409" lon="-1.6921">
        <ele>29</ele>
        <time>2023-11-04T14:59:34Z</time>
      </trkpt>
      <trkpt lat="47.18407" lon="-1.69219">
        <ele>29</ele>
        <time>2023-11-04T14:59:42Z</time>
      </trkpt>
      <trkpt lat="47.18404" lon="-1.69246">
        <ele>29</ele>
        <time>2023-11-04T15:00:07Z</time>
      </trkpt>
      <trkpt lat="47.18409" lon="-1.69267">
        <ele>29</ele>
        <time>2023-11-04T15:00:27Z</time>
      </trkpt>
      <trkpt lat="47.18408" lon="-1.69296">
        <ele>30</ele>
        <time>2023-11-04T15:00:54Z</time>
      </trkpt>
      <trkpt lat="47.18358" lon="-1.6929">
        <ele>30</ele>
        <time>2023-11-04T15:02:00Z</time>
      </trkpt>
      <trkpt lat="47.18328" lon="-1.69281">
        <ele>30</ele>
        <time>2023-11-04T15:02:41Z</time>
      </trkpt>
      <trkpt lat="47.18284" lon="-1.69263">
        <ele>30</ele>
        <time>2023-11-04T15:03:42Z</time>
      </trkpt>
      <trkpt lat="47.18236" lon="-1.69251">
        <ele>31</ele>
        <time>2023-11-04T15:04:47Z</time>
      </trkpt>
      <trkpt lat="47.18156" lon="-1.69245">
        <ele>30</ele>
        <time>2023-11-04T15:06:34Z</time>
      </trkpt>
      <trkpt lat="47.18087" lon="-1.69251">
        <ele>30</ele>
        <time>2023-11-04T15:08:06Z</time>
      </trkpt>
      <trkpt lat="47.18045" lon="-1.69236">
        <ele>31</ele>
        <time>2023-11-04T15:09:04Z</time>
      </trkpt>
      <trkpt lat="47.18024" lon="-1.69078">
        <ele>27</ele>
        <time>2023-11-04T15:11:30Z</time>
      </trkpt>
      <trkpt lat="47.18016" lon="-1.69027">
        <ele>26</ele>
        <time>2023-11-04T15:12:18Z</time>
      </trkpt>
      <trkpt lat="47.17966" lon="-1.69011">
        <ele>26</ele>
        <time>2023-11-04T15:13:26Z</time>
      </trkpt>
      <trkpt lat="47.17888" lon="-1.68973">
        <ele>27</ele>
        <time>2023-11-04T15:15:16Z</time>
      </trkpt>
      <trkpt lat="47.17843" lon="-1.68877">
        <ele>29</ele>
        <time>2023-11-04T15:17:01Z</time>
      </trkpt>
      <trkpt lat="47.17801" lon="-1.68806">
        <ele>30</ele>
        <time>2023-11-04T15:18:27Z</time>
      </trkpt>
      <trkpt lat="47.17742" lon="-1.68716">
        <ele>29</ele>
        <time>2023-11-04T15:20:20Z</time>
      </trkpt>
      <trkpt lat="47.17702" lon="-1.68633">
        <ele>31</ele>
        <time>2023-11-04T15:21:52Z</time>
      </trkpt>
      <trkpt lat="47.17712" lon="-1.68542">
        <ele>32</ele>
        <time>2023-11-04T15:23:16Z</time>
      </trkpt>
      <trkpt lat="47.17722" lon="-1.68415">
        <ele>33</ele>
        <time>2023-11-04T15:25:12Z</time>
      </trkpt>
      <trkpt lat="47.17739" lon="-1.68268">
        <ele>34</ele>
        <time>2023-11-04T15:27:27Z</time>
      </trkpt>
      <trkpt lat="47.17773" lon="-1.6816">
        <ele>36</ele>
        <time>2023-11-04T15:29:15Z</time>
      </trkpt>
      <trkpt lat="47.17807" lon="-1.68081">
        <ele>35</ele>
        <time>2023-11-04T15:30:40Z</time>
      </trkpt>
      <trkpt lat="47.17837" lon="-1.68024">
        <ele>34</ele>
        <time>2023-11-04T15:31:45Z</time>
      </trkpt>
      <trkpt lat="47.17847" lon="-1.67965">
        <ele>34</ele>
        <time>2023-11-04T15:32:41Z</time>
      </trkpt>
      <trkpt lat="47.17933" lon="-1.67918">
        <ele>34</ele>
        <time>2023-11-04T15:34:43Z</time>
      </trkpt>
      <trkpt lat="47.17972" lon="-1.67901">
        <ele>33</ele>
        <time>2023-11-04T15:35:37Z</time>
      </trkpt>
      <trkpt lat="47.18003" lon="-1.67882">
        <ele>33</ele>
        <time>2023-11-04T15:36:22Z</time>
      </trkpt>
      <trkpt lat="47.1802" lon="-1.6788">
        <ele>33</ele>
        <time>2023-11-04T15:36:45Z</time>
      </trkpt>
      <trkpt lat="47.18046" lon="-1.67874">
        <ele>33</ele>
        <time>2023-11-04T15:37:20Z</time>
      </trkpt>
      <trkpt lat="47.18105" lon="-1.67872">
        <ele>32</ele>
        <time>2023-11-04T15:38:39Z</time>
      </trkpt>
      <trkpt lat="47.18161" lon="-1.67876">
        <ele>32</ele>
        <time>2023-11-04T15:39:53Z</time>
      </trkpt>
      <trkpt lat="47.18222" lon="-1.67866">
        <ele>32</ele>
        <time>2023-11-04T15:41:15Z</time>
      </trkpt>
      <trkpt lat="47.1827" lon="-1.6787">
        <ele>32</ele>
        <time>2023-11-04T15:42:20Z</time>
      </trkpt>
      <trkpt lat="47.18325" lon="-1.67862">
        <ele>33</ele>
        <time>2023-11-04T15:43:33Z</time>
      </trkpt>
      <trkpt lat="47.18363" lon="-1.67835">
        <ele>33</ele>
        <time>2023-11-04T15:44:30Z</time>
      </trkpt>
      <trkpt lat="47.18395" lon="-1.6782">
        <ele>32</ele>
        <time>2023-11-04T15:45:14Z</time>
      </trkpt>
      <trkpt lat="47.18426" lon="-1.67804">
        <ele>32</ele>
        <time>2023-11-04T15:45:58Z</time>
      </trkpt>
      <trkpt lat="47.18416" lon="-1.6775">
        <ele>31</ele>
        <time>2023-11-04T15:46:49Z</time>
      </trkpt>
      <trkpt lat="47.18409" lon="-1.67705">
        <ele>31</ele>
        <time>2023-11-04T15:47:31Z</time>
      </trkpt>
      <trkpt lat="47.18381" lon="-1.67647">
        <ele>31</ele>
        <time>2023-11-04T15:48:35Z</time>
      </trkpt>
      <trkpt lat="47.18353" lon="-1.67529">
        <ele>31</ele>
        <time>2023-11-04T15:50:29Z</time>
      </trkpt>
    </trkseg>
  </trk>
</gpx>